CheckWX is a tool to help pilots better visualize weather data.  It is not intended as a substitute for an official pre-flight weather briefing.

14:02:50 UTC

KMEI METAR
Key Field Airport
Meridian, Mississippi, USA
Current

17 mins ago

KMEI 251346Z 19008KT 4SM R01/5000VP6000FT +TSRA BKN013 BKN023 OVC050 21/18 A2989 RMK AO2 LTG DSNT W RAB42 TSB40 P0003 T02110183
Observed
Apr-25 @ 13:46 UTC
Wind
  • 190° at 8 KTS
Visibility
4 SM
Flight Rules
MVFR
Conditions
Heavy Thunderstorm, Heavy Rain
Cloud Levels
  • Broken at 1,300' AGL
  • Broken at 2,300' AGL
  • Overcast at 5,000' AGL
Temperature
21°C / 70°F
Dewpoint
18°C / 64°F
Humidity
83%
Altimeter
29.89" Hg
Pressure
1012.22 hPa
Current Rain
0.03"
Previous

38 mins ago

KMEI 251325Z 18008KT 10SM BKN013 BKN022 OVC050 21/18 A2988 RMK AO2 T02110183
Observed
Apr-25 @ 13:25 UTC
Wind
  • 180° at 8 KTS
Visibility
10 SM
Flight Rules
MVFR
Cloud Levels
  • Broken at 1,300' AGL
  • Broken at 2,200' AGL
  • Overcast at 5,000' AGL
Temperature
21°C / 70°F
Dewpoint
18°C / 64°F
Humidity
83%
Altimeter
29.88" Hg
Pressure
1011.82 hPa
Previous

1 hour ago

KMEI 251258Z 17006KT 10SM FEW013 BKN027 21/18 A2988 RMK AO2 SLP114 T02110183
Observed
Apr-25 @ 12:58 UTC
Wind
  • 170° at 6 KTS
Visibility
10 SM
Flight Rules
MVFR
Cloud Levels
  • Few at 1,300' AGL
  • Broken at 2,700' AGL
Temperature
21°C / 70°F
Dewpoint
18°C / 64°F
Humidity
83%
Altimeter
29.88" Hg
Pressure
1011.82 hPa